Portada
METAR-TAF:

METAR-TAF

Aeroports :

Iğdır, Turquia

latitud: 39-58-36N, longitud: 43-52-36E, altitud: 945 m

Observació

L'informe es va fer fa 9 hores i 44 minuts, a les 10:50 UTC
Vent 9 kt del Est, variant entre Nord-Est i Est/Sud-Est
Temperatura 35°C
Humitat 19%
Pressió 1008 hPa
Visibilitat 10 km o més
Escasses núvols a una alçada de 10000 ft

METAR: LTCT 191050Z 08009KT 050V120 9999 FEW100 35/08 Q1008

Hora: 23:34 (20:34 UTC)

Pronòstic

L'informe es va fer fa 6 hores i 54 minuts, a les 13:40 UTC
Pronòstic vàlid del 19 a les 15 UTC al 19 a les 24 UTC
Vent 8 kt del Est
Visibilitat 10 km o més
Escasses núvols a una alçada de 10000 ft

TAF: LTCT 191340Z 1915/1924 08008KT 9999 FEW100

Observacions i pronòstics meteorològics de més de 4000 aeroports (METAR i TAF).

Les estacions disponibles són els punts grocs i vermells al mapa.

Posi el ratolí al punt desitjat per veure el nom de l'estació.

Feu clic per veure les observacions i els pronòstics meteorològics.

Per canviar el mapa: feu clic els botons verds amb una creu de color negre per apropar; al botó verd amb un guió per allunyar la imatge; o en les fletxes verdes per a mapes adjacents.


METAR-TAF: